sensor_id;sensor_type;location;lat;lon;timestamp;pressure;altitude;pressure_sealevel;temperature;humidity
51081;BME280;37130;55.670;37.596;2023-02-04T00:01:23;98856.38;;;-0.24;95.84
51081;BME280;37130;55.670;37.596;2023-02-04T00:03:50;98871.84;;;-0.16;96.52
51081;BME280;37130;55.670;37.596;2023-02-04T00:06:18;98956.88;;;0.39;96.57
51081;BME280;37130;55.670;37.596;2023-02-04T00:08:46;98955.19;;;0.35;96.23
51081;BME280;37130;55.670;37.596;2023-02-04T00:11:14;98958.69;;;0.34;96.32
51081;BME280;37130;55.670;37.596;2023-02-04T00:13:41;98970.69;;;0.43;96.35
51081;BME280;37130;55.670;37.596;2023-02-04T00:16:09;98967.28;;;0.39;96.63
51081;BME280;37130;55.670;37.596;2023-02-04T00:18:36;98964.63;;;0.41;96.48
51081;BME280;37130;55.670;37.596;2023-02-04T00:21:04;98887.25;;;-0.04;96.39
51081;BME280;37130;55.670;37.596;2023-02-04T00:23:32;98957.84;;;0.32;96.62
51081;BME280;37130;55.670;37.596;2023-02-04T00:26:00;98891.75;;;-0.13;96.32
51081;BME280;37130;55.670;37.596;2023-02-04T00:28:28;98970.13;;;0.24;96.37
51081;BME280;37130;55.670;37.596;2023-02-04T00:30:56;98967.66;;;0.15;96.00
51081;BME280;37130;55.670;37.596;2023-02-04T00:33:23;98904.28;;;-0.38;96.43
51081;BME280;37130;55.670;37.596;2023-02-04T00:35:51;98961.03;;;-0.05;96.36
51081;BME280;37130;55.670;37.596;2023-02-04T00:38:20;98873.41;;;-0.61;96.45
51081;BME280;37130;55.670;37.596;2023-02-04T00:40:49;98932.63;;;-0.20;96.26
51081;BME280;37130;55.670;37.596;2023-02-04T00:43:17;98979.09;;;0.05;96.56
51081;BME280;37130;55.670;37.596;2023-02-04T00:45:44;98945.72;;;-0.25;96.46
51081;BME280;37130;55.670;37.596;2023-02-04T00:48:12;98988.59;;;0.09;96.43
51081;BME280;37130;55.670;37.596;2023-02-04T00:50:40;98974.00;;;0.00;96.28
51081;BME280;37130;55.670;37.596;2023-02-04T00:53:07;98896.59;;;-0.46;96.53
51081;BME280;37130;55.670;37.596;2023-02-04T00:55:36;98998.06;;;0.13;96.70
51081;BME280;37130;55.670;37.596;2023-02-04T00:58:04;98839.03;;;-0.82;96.40
51081;BME280;37130;55.670;37.596;2023-02-04T01:00:31;98959.38;;;-0.10;96.22
51081;BME280;37130;55.670;37.596;2023-02-04T01:02:59;98998.97;;;0.12;96.11
51081;BME280;37130;55.670;37.596;2023-02-04T01:05:28;99005.03;;;0.12;96.00
51081;BME280;37130;55.670;37.596;2023-02-04T01:07:55;99005.75;;;0.20;96.13
51081;BME280;37130;55.670;37.596;2023-02-04T01:10:25;99007.41;;;0.28;96.03
51081;BME280;37130;55.670;37.596;2023-02-04T01:12:53;99014.38;;;0.26;96.29
51081;BME280;37130;55.670;37.596;2023-02-04T01:15:21;98996.25;;;0.19;96.06
51081;BME280;37130;55.670;37.596;2023-02-04T01:17:49;98999.69;;;0.20;95.85
51081;BME280;37130;55.670;37.596;2023-02-04T01:20:18;99010.84;;;0.30;96.45
51081;BME280;37130;55.670;37.596;2023-02-04T01:22:47;99000.38;;;0.33;96.25
51081;BME280;37130;55.670;37.596;2023-02-04T01:25:15;98902.44;;;-0.32;95.85
51081;BME280;37130;55.670;37.596;2023-02-04T01:27:44;99006.50;;;0.29;96.28
51081;BME280;37130;55.670;37.596;2023-02-04T01:30:13;99016.06;;;0.28;96.09
51081;BME280;37130;55.670;37.596;2023-02-04T01:32:41;98912.88;;;-0.33;96.13
51081;BME280;37130;55.670;37.596;2023-02-04T01:35:09;98959.38;;;-0.10;96.58
51081;BME280;37130;55.670;37.596;2023-02-04T01:37:37;99020.41;;;0.28;96.62
51081;BME280;37130;55.670;37.596;2023-02-04T01:40:05;98930.09;;;-0.23;96.39
51081;BME280;37130;55.670;37.596;2023-02-04T01:42:34;99020.22;;;0.40;96.66
51081;BME280;37130;55.670;37.596;2023-02-04T01:45:02;99019.16;;;0.52;96.49
51081;BME280;37130;55.670;37.596;2023-02-04T01:47:33;99025.22;;;0.54;96.01
51081;BME280;37130;55.670;37.596;2023-02-04T01:50:05;99025.34;;;0.46;96.15
51081;BME280;37130;55.670;37.596;2023-02-04T01:52:37;99026.28;;;0.42;96.45
51081;BME280;37130;55.670;37.596;2023-02-04T01:55:17;99023.69;;;0.42;96.60
51081;BME280;37130;55.670;37.596;2023-02-04T01:57:45;99018.50;;;0.39;96.65
51081;BME280;37130;55.670;37.596;2023-02-04T02:00:21;99036.69;;;0.42;96.27
51081;BME280;37130;55.670;37.596;2023-02-04T02:02:50;99040.50;;;0.21;96.88
51081;BME280;37130;55.670;37.596;2023-02-04T02:05:27;98936.31;;;-0.33;96.86
51081;BME280;37130;55.670;37.596;2023-02-04T02:07:59;98988.03;;;-0.13;97.14
51081;BME280;37130;55.670;37.596;2023-02-04T02:10:29;99048.16;;;0.30;96.57
51081;BME280;37130;55.670;37.596;2023-02-04T02:12:58;98988.06;;;-0.15;96.59
51081;BME280;37130;55.670;37.596;2023-02-04T02:15:26;99051.63;;;0.31;96.07
51081;BME280;37130;55.670;37.596;2023-02-04T02:17:54;99054.25;;;0.28;96.06
51081;BME280;37130;55.670;37.596;2023-02-04T02:20:24;99043.16;;;0.16;95.91
51081;BME280;37130;55.670;37.596;2023-02-04T02:25:50;99047.56;;;0.11;96.08
51081;BME280;37130;55.670;37.596;2023-02-04T02:28:20;99051.88;;;0.14;95.62
51081;BME280;37130;55.670;37.596;2023-02-04T02:30:48;98985.69;;;-0.30;95.59
51081;BME280;37130;55.670;37.596;2023-02-04T02:33:18;98969.28;;;-0.35;95.98
51081;BME280;37130;55.670;37.596;2023-02-04T02:35:47;98994.94;;;-0.11;95.76
51081;BME280;37130;55.670;37.596;2023-02-04T02:38:17;99072.50;;;0.28;95.87
51081;BME280;37130;55.670;37.596;2023-02-04T02:40:46;99059.47;;;0.26;95.60
51081;BME280;37130;55.670;37.596;2023-02-04T02:43:17;99059.44;;;0.31;95.85
51081;BME280;37130;55.670;37.596;2023-02-04T02:45:47;99078.44;;;0.36;95.95
51081;BME280;37130;55.670;37.596;2023-02-04T02:48:15;99032.81;;;0.10;95.55
51081;BME280;37130;55.670;37.596;2023-02-04T02:50:44;99075.97;;;0.28;95.49
51081;BME280;37130;55.670;37.596;2023-02-04T02:53:16;98979.63;;;-0.31;95.60
51081;BME280;37130;55.670;37.596;2023-02-04T02:55:45;99065.59;;;0.24;95.72
51081;BME280;37130;55.670;37.596;2023-02-04T02:58:37;99077.81;;;0.20;95.78
51081;BME280;37130;55.670;37.596;2023-02-04T03:01:07;99085.56;;;0.23;95.28
51081;BME280;37130;55.670;37.596;2023-02-04T03:03:42;99084.66;;;0.27;95.26
51081;BME280;37130;55.670;37.596;2023-02-04T03:06:15;99089.81;;;0.30;95.63
51081;BME280;37130;55.670;37.596;2023-02-04T03:08:49;99051.13;;;0.04;95.34
51081;BME280;37130;55.670;37.596;2023-02-04T03:11:17;98998.78;;;-0.38;95.35
51081;BME280;37130;55.670;37.596;2023-02-04T03:13:46;99096.00;;;0.23;95.40
51081;BME280;37130;55.670;37.596;2023-02-04T03:16:15;98892.91;;;-0.95;95.53
51081;BME280;37130;55.670;37.596;2023-02-04T03:18:42;99020.31;;;-0.25;95.71
51081;BME280;37130;55.670;37.596;2023-02-04T03:21:11;99033.31;;;-0.24;95.04
51081;BME280;37130;55.670;37.596;2023-02-04T03:23:39;99089.19;;;0.13;95.50
51081;BME280;37130;55.670;37.596;2023-02-04T03:26:07;99101.28;;;0.17;95.71
51081;BME280;37130;55.670;37.596;2023-02-04T03:28:38;98923.19;;;-0.92;95.64
51081;BME280;37130;55.670;37.596;2023-02-04T03:31:08;99098.66;;;0.20;95.56
51081;BME280;37130;55.670;37.596;2023-02-04T03:33:35;99021.22;;;-0.29;95.57
51081;BME280;37130;55.670;37.596;2023-02-04T03:36:03;99111.59;;;0.25;95.60
51081;BME280;37130;55.670;37.596;2023-02-04T03:38:31;99100.53;;;0.09;95.15
51081;BME280;37130;55.670;37.596;2023-02-04T03:41:00;99107.41;;;0.16;94.69
51081;BME280;37130;55.670;37.596;2023-02-04T03:43:28;99103.03;;;0.16;95.31
51081;BME280;37130;55.670;37.596;2023-02-04T03:45:58;99000.63;;;-0.46;95.03
51081;BME280;37130;55.670;37.596;2023-02-04T03:48:26;99058.28;;;-0.12;94.38
51081;BME280;37130;55.670;37.596;2023-02-04T03:50:53;99027.38;;;-0.35;94.61
51081;BME280;37130;55.670;37.596;2023-02-04T03:53:21;99128.00;;;0.31;94.96
51081;BME280;37130;55.670;37.596;2023-02-04T03:55:48;99116.66;;;0.34;94.89
51081;BME280;37130;55.670;37.596;2023-02-04T03:58:16;99021.00;;;-0.14;95.11
51081;BME280;37130;55.670;37.596;2023-02-04T04:00:44;99124.16;;;0.57;94.85
51081;BME280;37130;55.670;37.596;2023-02-04T04:03:11;99016.66;;;-0.13;94.55
51081;BME280;37130;55.670;37.596;2023-02-04T04:05:38;99127.72;;;0.53;95.00
51081;BME280;37130;55.670;37.596;2023-02-04T04:08:06;99079.56;;;0.18;94.90
51081;BME280;37130;55.670;37.596;2023-02-04T04:10:34;99125.91;;;0.56;95.01
51081;BME280;37130;55.670;37.596;2023-02-04T04:13:01;99131.03;;;0.62;95.01
51081;BME280;37130;55.670;37.596;2023-02-04T04:15:30;99085.41;;;0.34;95.10
51081;BME280;37130;55.670;37.596;2023-02-04T04:17:58;99145.75;;;0.67;94.84
51081;BME280;37130;55.670;37.596;2023-02-04T04:20:26;99033.97;;;-0.09;95.12
51081;BME280;37130;55.670;37.596;2023-02-04T04:22:54;99134.59;;;0.57;95.24
51081;BME280;37130;55.670;37.596;2023-02-04T04:25:22;99073.56;;;0.16;95.16
51081;BME280;37130;55.670;37.596;2023-02-04T04:27:49;99152.69;;;0.66;95.08
51081;BME280;37130;55.670;37.596;2023-02-04T04:30:17;99115.72;;;0.41;95.22
51081;BME280;37130;55.670;37.596;2023-02-04T04:32:45;99127.72;;;0.53;94.75
51081;BME280;37130;55.670;37.596;2023-02-04T04:35:12;99151.97;;;0.55;95.13
51081;BME280;37130;55.670;37.596;2023-02-04T04:37:40;99151.31;;;0.42;94.77
51081;BME280;37130;55.670;37.596;2023-02-04T04:40:10;99144.66;;;0.19;94.53
51081;BME280;37130;55.670;37.596;2023-02-04T04:42:38;99155.31;;;0.01;94.45
51081;BME280;37130;55.670;37.596;2023-02-04T04:45:08;99156.28;;;-0.09;94.66
51081;BME280;37130;55.670;37.596;2023-02-04T04:47:35;99055.56;;;-0.71;94.88
51081;BME280;37130;55.670;37.596;2023-02-04T04:50:03;99164.19;;;-0.17;95.23
51081;BME280;37130;55.670;37.596;2023-02-04T04:52:31;98993.72;;;-1.23;95.46
51081;BME280;37130;55.670;37.596;2023-02-04T04:54:59;99172.00;;;-0.15;95.46
51081;BME280;37130;55.670;37.596;2023-02-04T04:57:26;99168.50;;;-0.13;95.85
51081;BME280;37130;55.670;37.596;2023-02-04T04:59:54;99170.19;;;-0.10;95.86
51081;BME280;37130;55.670;37.596;2023-02-04T05:02:22;99173.59;;;-0.05;95.54
51081;BME280;37130;55.670;37.596;2023-02-04T05:04:49;99167.47;;;0.01;95.67
51081;BME280;37130;55.670;37.596;2023-02-04T05:07:17;99169.09;;;0.08;95.59
51081;BME280;37130;55.670;37.596;2023-02-04T05:09:45;99152.72;;;-0.01;95.70
51081;BME280;37130;55.670;37.596;2023-02-04T05:12:12;99182.91;;;0.13;95.78
51081;BME280;37130;55.670;37.596;2023-02-04T05:14:40;99174.97;;;0.27;95.62
51081;BME280;37130;55.670;37.596;2023-02-04T05:17:08;99183.72;;;0.21;95.57
51081;BME280;37130;55.670;37.596;2023-02-04T05:19:35;99192.38;;;0.21;95.77
51081;BME280;37130;55.670;37.596;2023-02-04T05:22:03;99198.44;;;0.20;95.84
51081;BME280;37130;55.670;37.596;2023-02-04T05:24:31;99197.69;;;0.14;95.99
51081;BME280;37130;55.670;37.596;2023-02-04T05:26:58;99207.25;;;0.12;95.94
51081;BME280;37130;55.670;37.596;2023-02-04T05:29:26;99196.00;;;0.08;95.78
51081;BME280;37130;55.670;37.596;2023-02-04T05:31:54;99196.06;;;0.02;95.58
51081;BME280;37130;55.670;37.596;2023-02-04T05:34:21;99209.03;;;0.08;95.73
51081;BME280;37130;55.670;37.596;2023-02-04T05:36:50;99118.56;;;-0.47;95.81
51081;BME280;37130;55.670;37.596;2023-02-04T05:39:17;99184.84;;;-0.03;95.82
51081;BME280;37130;55.670;37.596;2023-02-04T05:41:45;99214.13;;;0.17;95.81
51081;BME280;37130;55.670;37.596;2023-02-04T05:44:13;99155.59;;;-0.24;95.01
51081;BME280;37130;55.670;37.596;2023-02-04T05:46:40;99215.00;;;0.16;95.68
51081;BME280;37130;55.670;37.596;2023-02-04T05:49:08;99229.66;;;0.27;95.27
51081;BME280;37130;55.670;37.596;2023-02-04T05:51:36;99177.78;;;0.05;95.34
51081;BME280;37130;55.670;37.596;2023-02-04T05:54:04;99246.84;;;0.40;95.04
51081;BME280;37130;55.670;37.596;2023-02-04T05:56:32;99198.31;;;0.31;95.12
51081;BME280;37130;55.670;37.596;2023-02-04T05:59:00;99231.94;;;0.53;94.96
51081;BME280;37130;55.670;37.596;2023-02-04T06:01:28;99230.28;;;0.46;94.96
51081;BME280;37130;55.670;37.596;2023-02-04T06:03:55;99240.72;;;0.42;95.43
51081;BME280;37130;55.670;37.596;2023-02-04T06:06:23;99160.59;;;-0.05;94.97
51081;BME280;37130;55.670;37.596;2023-02-04T06:08:51;99238.13;;;0.41;95.12
51081;BME280;37130;55.670;37.596;2023-02-04T06:11:18;99268.44;;;0.47;95.49
51081;BME280;37130;55.670;37.596;2023-02-04T06:13:46;99256.38;;;0.41;94.83
51081;BME280;37130;55.670;37.596;2023-02-04T06:16:13;99170.19;;;-0.10;94.97
51081;BME280;37130;55.670;37.596;2023-02-04T06:18:41;99260.63;;;0.47;94.94
51081;BME280;37130;55.670;37.596;2023-02-04T06:21:09;99263.28;;;0.45;95.34
51081;BME280;37130;55.670;37.596;2023-02-04T06:23:36;99269.31;;;0.47;95.28
51081;BME280;37130;55.670;37.596;2023-02-04T06:26:04;99258.16;;;0.37;94.70
51081;BME280;37130;55.670;37.596;2023-02-04T06:28:33;99290.06;;;0.55;94.64
51081;BME280;37130;55.670;37.596;2023-02-04T06:31:01;99201.19;;;0.11;94.41
51081;BME280;37130;55.670;37.596;2023-02-04T06:33:29;99253.75;;;0.41;94.24
51081;BME280;37130;55.670;37.596;2023-02-04T06:35:56;99190.03;;;-0.03;94.44
51081;BME280;37130;55.670;37.596;2023-02-04T06:38:24;99193.50;;;-0.01;94.72
51081;BME280;37130;55.670;37.596;2023-02-04T06:40:51;99276.28;;;0.47;94.38
51081;BME280;37130;55.670;37.596;2023-02-04T06:43:20;99278.63;;;0.67;94.48
51081;BME280;37130;55.670;37.596;2023-02-04T06:45:48;99226.91;;;0.36;94.59
51081;BME280;37130;55.670;37.596;2023-02-04T06:48:17;99205.28;;;0.31;94.36
51081;BME280;37130;55.670;37.596;2023-02-04T06:50:45;99287.13;;;0.81;94.31
51081;BME280;37130;55.670;37.596;2023-02-04T06:53:13;99275.00;;;0.78;94.10
51081;BME280;37130;55.670;37.596;2023-02-04T06:55:41;99301.56;;;1.08;93.75
51081;BME280;37130;55.670;37.596;2023-02-04T06:58:08;99222.06;;;0.73;93.53
51081;BME280;37130;55.670;37.596;2023-02-04T07:00:36;99296.75;;;1.38;93.07
51081;BME280;37130;55.670;37.596;2023-02-04T07:03:03;99302.50;;;1.60;92.13
51081;BME280;37130;55.670;37.596;2023-02-04T07:05:33;99304.91;;;1.72;91.74
51081;BME280;37130;55.670;37.596;2023-02-04T07:08:01;99295.25;;;1.77;91.49
51081;BME280;37130;55.670;37.596;2023-02-04T07:10:29;99309.94;;;1.84;91.94
51081;BME280;37130;55.670;37.596;2023-02-04T07:12:57;99249.75;;;1.41;90.88
51081;BME280;37130;55.670;37.596;2023-02-04T07:15:25;99262.84;;;1.38;90.03
51081;BME280;37130;55.670;37.596;2023-02-04T07:17:52;99250.94;;;1.20;90.66
51081;BME280;37130;55.670;37.596;2023-02-04T07:20:20;99231.03;;;1.16;90.49
51081;BME280;37130;55.670;37.596;2023-02-04T07:22:48;99253.56;;;1.20;90.31
51081;BME280;37130;55.670;37.596;2023-02-04T07:25:16;99325.84;;;1.70;90.50
51081;BME280;37130;55.670;37.596;2023-02-04T07:27:44;99340.28;;;1.90;91.21
51081;BME280;37130;55.670;37.596;2023-02-04T07:30:12;99342.78;;;1.97;91.01
51081;BME280;37130;55.670;37.596;2023-02-04T07:32:39;99338.31;;;2.04;90.97
51081;BME280;37130;55.670;37.596;2023-02-04T07:35:09;99339.94;;;2.11;90.51
51081;BME280;37130;55.670;37.596;2023-02-04T07:37:36;99330.41;;;2.09;90.00
51081;BME280;37130;55.670;37.596;2023-02-04T07:40:04;99307.06;;;2.00;89.87
51081;BME280;37130;55.670;37.596;2023-02-04T07:42:32;99335.47;;;2.18;89.10
51081;BME280;37130;55.670;37.596;2023-02-04T07:45:08;99249.69;;;1.45;89.03
51081;BME280;37130;55.670;37.596;2023-02-04T07:47:35;99258.19;;;1.57;89.06
51081;BME280;37130;55.670;37.596;2023-02-04T07:50:04;99361.66;;;2.15;89.67
51081;BME280;37130;55.670;37.596;2023-02-04T07:52:32;99356.22;;;2.26;88.75
51081;BME280;37130;55.670;37.596;2023-02-04T07:54:59;99357.00;;;2.31;88.92
51081;BME280;37130;55.670;37.596;2023-02-04T07:57:29;99287.22;;;1.88;88.42
51081;BME280;37130;55.670;37.596;2023-02-04T07:59:57;99355.97;;;2.39;88.64
51081;BME280;37130;55.670;37.596;2023-02-04T08:02:26;99313.72;;;2.16;87.91
51081;BME280;37130;55.670;37.596;2023-02-04T08:04:53;99265.50;;;1.87;87.62
51081;BME280;37130;55.670;37.596;2023-02-04T08:07:21;99336.75;;;2.42;87.06
51081;BME280;37130;55.670;37.596;2023-02-04T08:09:49;99355.63;;;2.59;86.45
51081;BME280;37130;55.670;37.596;2023-02-04T08:12:17;99340.09;;;2.49;86.26
51081;BME280;37130;55.670;37.596;2023-02-04T08:14:44;99322.84;;;2.40;86.36
51081;BME280;37130;55.670;37.596;2023-02-04T08:17:12;99363.25;;;2.69;86.41
51081;BME280;37130;55.670;37.596;2023-02-04T08:19:40;99268.47;;;2.15;86.26
51081;BME280;37130;55.670;37.596;2023-02-04T08:22:07;99368.34;;;2.76;86.27
51081;BME280;37130;55.670;37.596;2023-02-04T08:24:35;99281.34;;;2.25;86.25
51081;BME280;37130;55.670;37.596;2023-02-04T08:27:03;99368.50;;;2.69;86.19
51081;BME280;37130;55.670;37.596;2023-02-04T08:29:30;99366.78;;;2.66;85.63
51081;BME280;37130;55.670;37.596;2023-02-04T08:31:58;99370.19;;;2.70;85.88
51081;BME280;37130;55.670;37.596;2023-02-04T08:34:26;99370.91;;;2.79;85.53
51081;BME280;37130;55.670;37.596;2023-02-04T08:36:54;99382.97;;;2.87;85.44
51081;BME280;37130;55.670;37.596;2023-02-04T08:39:22;99264.09;;;2.16;85.52
51081;BME280;37130;55.670;37.596;2023-02-04T08:41:49;99208.91;;;1.88;85.17
51081;BME280;37130;55.670;37.596;2023-02-04T08:44:17;99385.53;;;2.88;85.53
51081;BME280;37130;55.670;37.596;2023-02-04T08:46:45;99368.41;;;2.73;85.03
51081;BME280;37130;55.670;37.596;2023-02-04T08:49:13;99374.63;;;2.66;84.67
51081;BME280;37130;55.670;37.596;2023-02-04T08:51:40;99396.19;;;2.77;84.08
51081;BME280;37130;55.670;37.596;2023-02-04T08:54:08;99403.34;;;2.69;83.56
51081;BME280;37130;55.670;37.596;2023-02-04T08:56:36;99318.09;;;2.15;83.90
51081;BME280;37130;55.670;37.596;2023-02-04T08:59:04;99395.69;;;2.58;83.44
51081;BME280;37130;55.670;37.596;2023-02-04T09:01:31;99394.97;;;2.52;84.37
51081;BME280;37130;55.670;37.596;2023-02-04T09:03:59;99300.09;;;2.00;83.68
51081;BME280;37130;55.670;37.596;2023-02-04T09:06:27;99406.91;;;2.65;83.29
51081;BME280;37130;55.670;37.596;2023-02-04T09:08:54;99381.78;;;2.58;83.52
51081;BME280;37130;55.670;37.596;2023-02-04T09:11:22;99405.09;;;2.67;84.04
51081;BME280;37130;55.670;37.596;2023-02-04T09:13:49;99407.63;;;2.73;82.77
51081;BME280;37130;55.670;37.596;2023-02-04T09:16:17;99405.84;;;2.75;82.39
51081;BME280;37130;55.670;37.596;2023-02-04T09:18:44;99408.50;;;2.74;82.52
51081;BME280;37130;55.670;37.596;2023-02-04T09:21:12;99377.53;;;2.51;81.64
51081;BME280;37130;55.670;37.596;2023-02-04T09:23:40;99321.63;;;2.11;82.60
51081;BME280;37130;55.670;37.596;2023-02-04T09:26:07;99407.66;;;2.72;82.68
51081;BME280;37130;55.670;37.596;2023-02-04T09:28:35;99410.25;;;2.73;83.08
51081;BME280;37130;55.670;37.596;2023-02-04T09:31:28;99403.97;;;2.82;82.88
51081;BME280;37130;55.670;37.596;2023-02-04T09:33:59;99403.13;;;2.80;82.05
51081;BME280;37130;55.670;37.596;2023-02-04T09:36:28;99398.81;;;2.79;82.93
51081;BME280;37130;55.670;37.596;2023-02-04T09:38:59;99322.84;;;2.40;82.57
51081;BME280;37130;55.670;37.596;2023-02-04T09:41:28;99418.56;;;2.94;82.71
51081;BME280;37130;55.670;37.596;2023-02-04T09:43:57;99408.34;;;2.80;83.23
51081;BME280;37130;55.670;37.596;2023-02-04T09:46:30;99413.59;;;2.80;82.64
51081;BME280;37130;55.670;37.596;2023-02-04T09:49:02;99423.06;;;2.85;82.94
51081;BME280;37130;55.670;37.596;2023-02-04T09:51:33;99347.34;;;2.36;82.47
51081;BME280;37130;55.670;37.596;2023-02-04T09:54:11;99424.75;;;2.90;82.79
51081;BME280;37130;55.670;37.596;2023-02-04T09:56:42;99223.06;;;1.76;81.99
51081;BME280;37130;55.670;37.596;2023-02-04T09:59:19;99418.81;;;2.81;81.38
51081;BME280;37130;55.670;37.596;2023-02-04T10:01:54;99438.22;;;2.68;80.65
51081;BME280;37130;55.670;37.596;2023-02-04T10:04:27;99437.66;;;2.52;81.18
51081;BME280;37130;55.670;37.596;2023-02-04T10:06:58;99349.00;;;1.90;81.03
51081;BME280;37130;55.670;37.596;2023-02-04T10:09:29;99440.38;;;2.45;79.95
51081;BME280;37130;55.670;37.596;2023-02-04T10:11:56;99349.03;;;1.87;80.48
51081;BME280;37130;55.670;37.596;2023-02-04T10:14:27;99409.22;;;2.32;80.56
51081;BME280;37130;55.670;37.596;2023-02-04T10:16:56;99445.13;;;2.72;80.75
51081;BME280;37130;55.670;37.596;2023-02-04T10:19:31;99343.03;;;2.33;80.88
51081;BME280;37130;55.670;37.596;2023-02-04T10:21:59;99446.38;;;2.99;79.03
51081;BME280;37130;55.670;37.596;2023-02-04T10:24:32;99279.22;;;1.98;78.21
51081;BME280;37130;55.670;37.596;2023-02-04T10:27:09;99439.59;;;2.89;78.19
51081;BME280;37130;55.670;37.596;2023-02-04T10:29:37;99377.47;;;2.54;78.81
51081;BME280;37130;55.670;37.596;2023-02-04T10:32:25;99454.56;;;3.24;78.66
51081;BME280;37130;55.670;37.596;2023-02-04T10:34:58;99456.78;;;3.44;77.74
51081;BME280;37130;55.670;37.596;2023-02-04T10:37:26;99459.28;;;3.50;77.10
51081;BME280;37130;55.670;37.596;2023-02-04T10:39:54;99458.66;;;3.38;77.10
51081;BME280;37130;55.670;37.596;2023-02-04T10:42:27;99378.66;;;2.84;77.22
51081;BME280;37130;55.670;37.596;2023-02-04T10:44:56;99474.19;;;3.47;78.58
51081;BME280;37130;55.670;37.596;2023-02-04T10:47:26;99468.97;;;3.45;78.21
51081;BME280;37130;55.670;37.596;2023-02-04T10:50:01;99476.72;;;3.51;78.56
51081;BME280;37130;55.670;37.596;2023-02-04T10:52:40;99385.88;;;2.70;77.80
51081;BME280;37130;55.670;37.596;2023-02-04T10:55:14;99463.81;;;2.99;77.80
51081;BME280;37130;55.670;37.596;2023-02-04T10:57:45;99410.41;;;2.64;78.15
51081;BME280;37130;55.670;37.596;2023-02-04T11:03:08;99483.53;;;2.70;78.25
51081;BME280;37130;55.670;37.596;2023-02-04T11:05:37;99483.91;;;2.47;77.66
51081;BME280;37130;55.670;37.596;2023-02-04T11:08:27;99485.84;;;2.36;77.70
51081;BME280;37130;55.670;37.596;2023-02-04T11:11:03;99500.56;;;2.40;78.72
51081;BME280;37130;55.670;37.596;2023-02-04T11:13:42;99496.16;;;2.44;78.07
51081;BME280;37130;55.670;37.596;2023-02-04T11:18:58;99501.66;;;2.27;78.05
51081;BME280;37130;55.670;37.596;2023-02-04T11:39:40;99512.69;;;1.85;77.83
51081;BME280;37130;55.670;37.596;2023-02-04T11:45:31;99522.06;;;2.00;78.61
51081;BME280;37130;55.670;37.596;2023-02-04T11:48:10;99523.91;;;1.93;78.80
51081;BME280;37130;55.670;37.596;2023-02-04T11:50:38;99509.72;;;2.11;78.50
51081;BME280;37130;55.670;37.596;2023-02-04T11:53:11;99530.50;;;2.21;79.03
51081;BME280;37130;55.670;37.596;2023-02-04T11:55:45;99428.59;;;1.63;78.97
51081;BME280;37130;55.670;37.596;2023-02-04T11:58:16;99520.94;;;2.18;78.97
51081;BME280;37130;55.670;37.596;2023-02-04T12:00:46;99513.13;;;2.18;78.71
51081;BME280;37130;55.670;37.596;2023-02-04T12:03:47;99528.16;;;2.01;79.04
51081;BME280;37130;55.670;37.596;2023-02-04T12:06:26;99541.22;;;2.01;79.48
51081;BME280;37130;55.670;37.596;2023-02-04T12:09:19;99538.69;;;1.94;78.98
51081;BME280;37130;55.670;37.596;2023-02-04T12:12:02;99541.34;;;1.91;79.76
51081;BME280;37130;55.670;37.596;2023-02-04T12:14:32;99539.56;;;1.93;79.65
51081;BME280;37130;55.670;37.596;2023-02-04T12:17:11;99467.16;;;1.43;79.72
51081;BME280;37130;55.670;37.596;2023-02-04T12:19:42;99401.81;;;0.84;79.69
51081;BME280;37130;55.670;37.596;2023-02-04T12:22:10;99543.63;;;1.49;80.10
51081;BME280;37130;55.670;37.596;2023-02-04T12:24:37;99375.47;;;0.24;80.18
51081;BME280;37130;55.670;37.596;2023-02-04T12:27:08;99563.03;;;1.22;79.64
51081;BME280;37130;55.670;37.596;2023-02-04T12:29:38;99545.00;;;1.02;80.31
51081;BME280;37130;55.670;37.596;2023-02-04T12:32:06;99572.75;;;1.08;80.02
51081;BME280;37130;55.670;37.596;2023-02-04T12:34:37;99536.44;;;0.88;80.77
51081;BME280;37130;55.670;37.596;2023-02-04T12:37:04;99561.44;;;1.09;80.53
51081;BME280;37130;55.670;37.596;2023-02-04T12:39:32;99559.75;;;1.03;80.65
51081;BME280;37130;55.670;37.596;2023-02-04T12:42:00;99554.63;;;0.96;80.59
51081;BME280;37130;55.670;37.596;2023-02-04T12:44:30;99569.25;;;1.11;80.74
51081;BME280;37130;55.670;37.596;2023-02-04T12:46:58;99489.00;;;0.51;79.99
51081;BME280;37130;55.670;37.596;2023-02-04T12:49:26;99594.47;;;1.08;80.71
51081;BME280;37130;55.670;37.596;2023-02-04T12:51:56;99573.75;;;0.93;81.27
51081;BME280;37130;55.670;37.596;2023-02-04T12:54:26;99581.63;;;0.90;81.20
51081;BME280;37130;55.670;37.596;2023-02-04T12:56:54;99573.81;;;0.87;81.00
51081;BME280;37130;55.670;37.596;2023-02-04T12:59:25;99605.88;;;0.98;81.16
51081;BME280;37130;55.670;37.596;2023-02-04T13:01:53;99535.00;;;0.53;80.85
51081;BME280;37130;55.670;37.596;2023-02-04T13:04:20;99519.47;;;0.42;81.16
51081;BME280;37130;55.670;37.596;2023-02-04T13:06:48;99587.78;;;0.81;81.05
51081;BME280;37130;55.670;37.596;2023-02-04T13:09:18;99612.00;;;0.93;81.48
51081;BME280;37130;55.670;37.596;2023-02-04T13:11:46;99549.81;;;0.48;81.67
51081;BME280;37130;55.670;37.596;2023-02-04T13:14:14;99609.38;;;0.94;81.82
51081;BME280;37130;55.670;37.596;2023-02-04T13:16:44;99595.59;;;0.81;81.79
51081;BME280;37130;55.670;37.596;2023-02-04T13:19:13;99606.88;;;0.82;82.15
51081;BME280;37130;55.670;37.596;2023-02-04T13:21:40;99614.66;;;0.88;82.10
51081;BME280;37130;55.670;37.596;2023-02-04T13:24:08;99612.09;;;0.82;82.62
51081;BME280;37130;55.670;37.596;2023-02-04T13:26:38;99621.59;;;0.87;82.37
51081;BME280;37130;55.670;37.596;2023-02-04T13:29:06;99599.16;;;0.70;82.28
51081;BME280;37130;55.670;37.596;2023-02-04T13:31:34;99629.47;;;0.84;82.43
51081;BME280;37130;55.670;37.596;2023-02-04T13:34:02;99607.81;;;0.75;82.31
51081;BME280;37130;55.670;37.596;2023-02-04T13:36:30;99541.28;;;0.28;82.08
51081;BME280;37130;55.670;37.596;2023-02-04T13:38:58;99629.56;;;0.69;82.33